Groton, CT (06340)

12:54 AM EDT on April 27, 2015 (GMT -0400)
Groton Dock Thames River | | Change Station
CLOSE
Current Station
Personal Weather Station
Location: Groton, CT
Elevation: 0 ft
Nearby Weather Stations

Elev 0 ft 41.36 °N, 72.08 °W | Updated 17 seconds ago

Overcast
Overcast
52.0 °F
Feels Like 52.0 °F
N
5.3
Wind Variable Wind from NW
Gusts 8.3 mph

Today
High -- | Low -- °F
--% Chance of Precip.
Yesterday
High -- | Low -- °F
Precip. -- in
5:51 AM 7:41 PM
First Quarter, 61% visible
Pressure 29.63 in
Visibility 10.0 miles
Clouds Overcast 8000 ft
Dew Point 34 °F
Humidity 51%
Rainfall 0.00 in
Snow Depth Not available.
UV 0 out of 12
Pollen 10.50 out of 12
Air Quality Not available.
Flu Activity Widespread
METAR KGON 270356Z AUTO 32006KT 10SM OVC080 11/M01 A2963 RMK AO2 SLP033 T01111011

More Conditions Fewer Conditions

Pressure 29.63 in
Visibility 10.0 miles
Clouds Overcast 8000 ft
Dew Point 34 °F
Humidity 51%
Rainfall 0.00 in
Snow Depth Not available.
UV 0 out of 12
Pollen 10.50 out of 12
Air Quality Not available.
Flu Activity Widespread
METAR KGON 270356Z AUTO 32006KT 10SM OVC080 11/M01 A2963 RMK AO2 SLP033 T01111011

More Conditions Fewer Conditions

The full scope of the disaster following a powerful 7.8-magnitude earthquake in Nepal may not come into view for days, but global charities are already sending emergency aid. Click to see how you can help.

10-Day Weather Forecast

Almanac

Astronomy

Apr. 27, 2015 Rise Set
Actual Time
Civil Twilight
Nautical Twilight
Astronomical Twilight
Moon
Length of Visible Light
Length of Day
Tomorrow will be .
, % of the Moon is Illuminated

Today's Extremes

State Highs State Lows

Community

WunderPhotos

Upload Photos

1,817,264 photos uploaded!

WunderBlogs® & News

Nearby

Air Quality

  Air Quality AQ Index Pollutant
Not available.

Snow Depth

Station Depth Elevation

Earthquake Activity

City Distance Mag. Time & Date
Minimum magnitude displayed is 2.5.

Coastal Water Temperatures

Place Temperature

Stations

Nearby Weather Stations

Station Location Temp. Windchill Dew Point Humidity Wind Precip. Elev Updated Type